Freeport, MI (49325)

5:26 PM EDT on July 30, 2015 (GMT -0400)
Alto MI | | Change Station
CLOSE
Current Station
Personal Weather Station
Location: Alto, MI
Elevation: 804 ft
Nearby Weather Stations

Elev 804 ft 42.79 °N, 85.39 °W | Updated 1 minute ago

Clear
Clear
84.6 °F
Feels Like 86 °F
N
7.3
Wind Variable Wind from WSW

Today
High -- | Low -- °F
--% Chance of Precip.
Yesterday
High -- | Low -- °F
Precip. -- in
6:30 AM 9:04 PM
Full, 100% visible
Pressure 29.97 in
Visibility 10.0 miles
Clouds Few 6000 ft
Heat Index 86 °F
Dew Point 63 °F
Humidity 49%
Rainfall 0.00 in
Snow Depth Not available.
UV 6 out of 12
Pollen 7.70 out of 12
Air Quality Not available.
Flu Activity Not available.
METAR KGRR 302053Z 30017G25KT 10SM FEW060 28/13 A2998 RMK AO2 PK WND 28027/2038 SLP147 T02830128 58004

More Conditions Fewer Conditions

Pressure 29.97 in
Visibility 10.0 miles
Clouds Few 6000 ft
Heat Index 86 °F
Dew Point 63 °F
Humidity 49%
Rainfall 0.00 in
Snow Depth Not available.
UV 6 out of 12
Pollen 7.70 out of 12
Air Quality Not available.
Flu Activity Not available.
METAR KGRR 302053Z 30017G25KT 10SM FEW060 28/13 A2998 RMK AO2 PK WND 28027/2038 SLP147 T02830128 58004

More Conditions Fewer Conditions

10-Day Weather Forecast

×

Almanac

Astronomy

Jul. 30, 2015 Rise Set
Actual Time
Civil Twilight
Nautical Twilight
Astronomical Twilight
Moon
Length of Visible Light
Length of Day
Tomorrow will be .
, % of the Moon is Illuminated

Today's Extremes

State Highs State Lows

Community

WunderPhotos

Upload Photos

1,842,502 photos uploaded!

WunderBlogs® & News

Nearby

Air Quality

  Air Quality AQ Index Pollutant
Not available.

Snow Depth

Station Depth Elevation

Earthquake Activity

City Distance Mag. Time & Date
Minimum magnitude displayed is 2.5.

Coastal Water Temperatures

Place Temperature

Stations

Nearby Weather Stations

Station Location Temp. Windchill Dew Point Humidity Wind Precip. Elev Updated Type